createdAt,value
2018-07-23T00:02:08.763Z,17.90
2018-07-23T00:04:38.939Z,17.80
2018-07-23T00:07:09.564Z,17.70
2018-07-23T00:09:40.462Z,17.70
2018-07-23T00:12:10.874Z,17.70
2018-07-23T00:14:41.436Z,17.70
2018-07-23T00:17:12.019Z,17.70
2018-07-23T00:19:42.115Z,17.60
2018-07-23T00:22:12.245Z,17.60
2018-07-23T00:24:42.478Z,17.60
2018-07-23T00:27:12.560Z,17.60
2018-07-23T00:29:42.754Z,17.50
2018-07-23T00:32:13.258Z,17.50
2018-07-23T00:34:43.477Z,17.50
2018-07-23T00:37:13.816Z,17.40
2018-07-23T00:39:44.175Z,17.50
2018-07-23T00:42:14.322Z,17.50
2018-07-23T00:44:44.713Z,17.50
2018-07-23T00:47:15.148Z,17.70
2018-07-23T00:49:45.533Z,17.70
2018-07-23T00:52:15.841Z,17.80
2018-07-23T00:54:46.125Z,17.80
2018-07-23T00:57:16.383Z,17.80
2018-07-23T00:59:46.499Z,17.80
2018-07-23T01:02:16.745Z,17.80
2018-07-23T01:04:46.924Z,17.80
2018-07-23T01:07:17.268Z,17.70
2018-07-23T01:09:47.624Z,17.60
2018-07-23T01:12:29.080Z,17.50
2018-07-23T01:15:00.603Z,17.50
2018-07-23T01:17:30.760Z,17.40
2018-07-23T01:20:01.261Z,17.30
2018-07-23T01:22:31.399Z,17.30
2018-07-23T01:25:01.593Z,17.20
2018-07-23T01:27:31.738Z,17.10
2018-07-23T01:30:01.875Z,17.10
2018-07-23T01:32:31.970Z,17.10
2018-07-23T01:35:02.184Z,17.10
2018-07-23T01:37:32.432Z,17.10
2018-07-23T01:40:02.640Z,17.10
2018-07-23T01:42:32.760Z,17.00
2018-07-23T01:45:03.202Z,17.00
2018-07-23T01:47:33.451Z,17.00
2018-07-23T01:50:03.610Z,16.90
2018-07-23T01:52:33.705Z,16.90
2018-07-23T01:55:04.018Z,16.90
2018-07-23T01:57:34.152Z,16.90
2018-07-23T02:00:04.592Z,16.80
2018-07-23T02:02:34.749Z,16.70
2018-07-23T02:05:04.982Z,16.70
2018-07-23T02:07:35.102Z,16.60
2018-07-23T02:10:05.423Z,16.60
2018-07-23T02:12:35.556Z,16.60
2018-07-23T02:15:06.264Z,16.60
2018-07-23T02:17:36.462Z,16.60
2018-07-23T02:20:07.159Z,16.60
2018-07-23T02:22:37.250Z,16.60
2018-07-23T02:25:07.468Z,16.60
2018-07-23T02:27:37.561Z,16.50
2018-07-23T02:30:07.833Z,16.50
2018-07-23T02:32:37.890Z,16.40
2018-07-23T02:35:08.117Z,16.40
2018-07-23T02:37:38.229Z,16.40
2018-07-23T02:40:08.805Z,16.30
2018-07-23T02:42:38.912Z,16.20
2018-07-23T02:45:09.150Z,16.20
2018-07-23T02:47:39.334Z,16.10
2018-07-23T02:50:09.522Z,16.10
2018-07-23T02:52:39.605Z,16.10
2018-07-23T02:55:09.789Z,16.10
2018-07-23T02:57:39.925Z,16.10
2018-07-23T03:00:10.157Z,16.20
2018-07-23T03:02:40.297Z,16.20
2018-07-23T03:05:10.453Z,16.20
2018-07-23T03:07:40.885Z,16.10
2018-07-23T03:10:11.012Z,16.00
2018-07-23T03:12:41.089Z,16.00
2018-07-23T03:15:11.267Z,15.90
2018-07-23T03:17:41.630Z,15.90
2018-07-23T03:20:11.784Z,15.80
2018-07-23T03:22:41.947Z,15.70
2018-07-23T03:25:11.688Z,15.70
2018-07-23T03:27:41.811Z,15.60
2018-07-23T03:30:11.901Z,15.50
2018-07-23T03:32:42.045Z,15.40
2018-07-23T03:35:12.194Z,15.40
2018-07-23T03:37:42.338Z,15.40
2018-07-23T03:40:12.569Z,15.30
2018-07-23T03:42:42.664Z,15.30
2018-07-23T03:45:12.838Z,15.20
2018-07-23T03:47:42.964Z,15.20
2018-07-23T03:50:13.139Z,15.20
2018-07-23T03:52:43.226Z,15.20
2018-07-23T03:55:13.490Z,15.20
2018-07-23T03:57:43.567Z,15.10
2018-07-23T04:00:13.728Z,15.10
2018-07-23T04:02:43.865Z,15.10
2018-07-23T04:05:13.982Z,15.10
2018-07-23T04:07:44.134Z,15.10
2018-07-23T04:10:14.257Z,15.20
2018-07-23T04:12:44.398Z,15.20
2018-07-23T04:15:14.494Z,15.20
2018-07-23T04:17:48.573Z,15.20
2018-07-23T04:20:18.664Z,15.20
2018-07-23T04:22:48.801Z,15.30
2018-07-23T04:25:18.891Z,15.30
2018-07-23T04:27:48.974Z,15.40
2018-07-23T04:30:19.104Z,15.40
2018-07-23T04:32:49.267Z,15.50
2018-07-23T04:35:19.407Z,15.60
2018-07-23T04:37:49.553Z,15.70
2018-07-23T04:40:19.667Z,15.80
2018-07-23T04:42:49.764Z,15.90
2018-07-23T04:45:19.948Z,15.90
2018-07-23T04:47:50.105Z,16.00
2018-07-23T04:50:20.348Z,16.00
2018-07-23T04:52:50.509Z,16.20
2018-07-23T04:55:20.736Z,16.30
2018-07-23T04:57:50.905Z,16.40
2018-07-23T05:00:21.067Z,16.60
2018-07-23T05:02:51.163Z,16.70
2018-07-23T05:05:21.384Z,16.80
2018-07-23T05:07:57.757Z,16.70
2018-07-23T05:10:28.298Z,16.70
2018-07-23T05:12:58.440Z,16.70
2018-07-23T05:15:28.759Z,16.80
2018-07-23T05:17:59.096Z,16.80
2018-07-23T05:20:29.775Z,16.80
2018-07-23T05:22:59.982Z,17.00
2018-07-23T05:25:30.205Z,17.10
2018-07-23T05:28:00.415Z,17.30
2018-07-23T05:30:30.554Z,17.40
2018-07-23T05:33:00.657Z,17.60
2018-07-23T05:35:30.814Z,17.70
2018-07-23T05:38:01.020Z,17.80
2018-07-23T05:40:31.197Z,18.00
2018-07-23T05:43:01.283Z,18.10
2018-07-23T05:45:31.403Z,18.40
2018-07-23T05:48:01.582Z,19.20
2018-07-23T05:50:32.012Z,20.80
2018-07-23T05:53:02.191Z,22.60
2018-07-23T05:55:32.527Z,24.30
2018-07-23T05:58:02.710Z,25.80
2018-07-23T06:00:32.838Z,27.10
2018-07-23T06:03:03.009Z,27.90
2018-07-23T06:05:33.291Z,28.50
2018-07-23T06:08:05.328Z,29.00
2018-07-23T06:10:35.869Z,29.70
2018-07-23T06:13:06.411Z,30.20
2018-07-23T06:15:36.594Z,30.90
2018-07-23T06:18:06.996Z,31.40
2018-07-23T06:20:37.175Z,31.60
2018-07-23T06:23:07.475Z,32.10
2018-07-23T06:25:38.318Z,31.70
2018-07-23T06:28:08.754Z,31.70
2018-07-23T06:30:38.944Z,31.80
2018-07-23T06:33:09.121Z,31.30
2018-07-23T06:35:39.322Z,31.30
2018-07-23T06:38:09.507Z,30.90
2018-07-23T06:40:40.346Z,30.60
2018-07-23T06:43:10.464Z,29.70
2018-07-23T06:45:40.825Z,29.20
2018-07-23T06:48:10.885Z,29.40
2018-07-23T06:53:50.698Z,30.00
2018-07-23T06:56:20.882Z,30.60
2018-07-23T06:58:51.200Z,30.80
2018-07-23T07:01:21.302Z,31.20
2018-07-23T07:03:51.493Z,30.50
2018-07-23T07:06:21.673Z,29.80
2018-07-23T07:09:00.407Z,29.30
2018-07-23T07:11:35.682Z,29.20
2018-07-23T07:14:06.262Z,29.70
2018-07-23T07:16:36.426Z,30.20
2018-07-23T07:19:06.651Z,30.50
2018-07-23T07:21:36.765Z,30.80
2018-07-23T07:24:08.538Z,30.40
2018-07-23T07:26:38.733Z,29.90
2018-07-23T07:29:09.001Z,29.90
2018-07-23T07:31:39.094Z,29.70
2018-07-23T07:34:09.497Z,30.10
2018-07-23T07:36:39.618Z,30.60
2018-07-23T07:39:12.788Z,31.20
2018-07-23T07:41:43.049Z,30.80
2018-07-23T07:44:13.316Z,31.40
2018-07-23T07:46:43.446Z,32.00
2018-07-23T07:49:13.687Z,32.20
2018-07-23T07:51:44.145Z,32.00
2018-07-23T07:54:14.344Z,31.00
2018-07-23T07:56:44.520Z,30.80
2018-07-23T07:59:14.884Z,31.20
2018-07-23T08:01:45.123Z,31.80
2018-07-23T08:04:15.784Z,32.40
2018-07-23T08:06:46.865Z,32.80
2018-07-23T08:09:17.167Z,32.60
2018-07-23T08:11:47.370Z,32.30
2018-07-23T08:14:17.569Z,32.50
2018-07-23T08:16:47.766Z,31.90
2018-07-23T08:19:18.070Z,31.30
2018-07-23T08:21:48.370Z,31.10
2018-07-23T08:24:18.627Z,31.50
2018-07-23T08:26:48.767Z,32.10
2018-07-23T08:29:19.009Z,32.60
2018-07-23T08:31:49.191Z,32.80
2018-07-23T08:34:19.357Z,32.50
2018-07-23T08:36:49.562Z,32.30
2018-07-23T08:39:19.827Z,32.00
2018-07-23T08:41:50.095Z,31.50
2018-07-23T08:44:20.339Z,31.20
2018-07-23T08:46:50.525Z,31.20
2018-07-23T08:49:20.619Z,31.20
2018-07-23T08:51:50.798Z,31.30
2018-07-23T08:54:20.911Z,31.80
2018-07-23T08:56:51.020Z,31.80
2018-07-23T08:59:21.088Z,31.30
2018-07-23T09:01:51.221Z,31.60
2018-07-23T09:04:21.371Z,31.60
2018-07-23T09:06:51.457Z,30.80
2018-07-23T09:09:21.553Z,30.20
2018-07-23T09:11:51.650Z,30.20
2018-07-23T09:14:22.037Z,30.40
2018-07-23T09:16:52.166Z,31.00
2018-07-23T09:19:22.293Z,31.60
2018-07-23T09:21:52.364Z,32.20
2018-07-23T09:24:22.893Z,32.30
2018-07-23T09:26:53.032Z,32.40
2018-07-23T09:29:23.190Z,33.00
2018-07-23T09:31:53.352Z,32.60
2018-07-23T09:34:24.047Z,32.70
2018-07-23T09:36:54.168Z,32.80
2018-07-23T09:39:24.310Z,32.60
2018-07-23T09:41:54.520Z,32.60
2018-07-23T09:44:25.730Z,32.50
2018-07-23T09:47:02.394Z,32.30
2018-07-23T09:52:02.462Z,31.50
2018-07-23T09:54:32.592Z,30.70
2018-07-23T09:57:02.743Z,30.20
2018-07-23T09:59:33.186Z,30.50
2018-07-23T10:02:03.455Z,30.70
2018-07-23T10:04:33.710Z,30.90
2018-07-23T10:07:04.051Z,30.90
2018-07-23T10:09:34.270Z,30.40
2018-07-23T10:12:04.344Z,29.90
2018-07-23T10:14:34.556Z,29.10
2018-07-23T10:17:04.695Z,28.80
2018-07-23T10:19:34.954Z,28.90
2018-07-23T10:22:05.412Z,29.10
2018-07-23T10:24:35.580Z,29.10
2018-07-23T10:27:05.741Z,29.20
2018-07-23T10:29:36.109Z,29.10
2018-07-23T10:32:06.275Z,29.20
2018-07-23T10:34:36.517Z,29.30
2018-07-23T10:37:06.807Z,29.10
2018-07-23T10:39:37.076Z,29.10
2018-07-23T10:42:07.555Z,29.10
2018-07-23T10:44:37.692Z,29.00
2018-07-23T10:47:08.079Z,28.90
2018-07-23T10:49:38.361Z,28.70
2018-07-23T10:52:08.560Z,28.80
2018-07-23T10:54:38.739Z,28.70
2018-07-23T10:57:08.986Z,28.70
2018-07-23T10:59:39.069Z,28.70
2018-07-23T11:02:09.340Z,28.80
2018-07-23T11:04:39.462Z,29.00
2018-07-23T11:07:09.705Z,29.00
2018-07-23T11:09:39.932Z,28.90
2018-07-23T11:12:10.053Z,28.70
2018-07-23T11:14:40.187Z,28.50
2018-07-23T11:17:10.301Z,28.10
2018-07-23T11:19:40.444Z,27.90
2018-07-23T11:22:10.576Z,27.70
2018-07-23T11:24:45.445Z,27.90
2018-07-23T11:27:11.008Z,28.40
2018-07-23T11:29:41.326Z,28.70
2018-07-23T11:32:11.583Z,28.80
2018-07-23T11:34:41.786Z,28.60
2018-07-23T11:37:11.909Z,28.40
2018-07-23T11:39:42.078Z,28.40
2018-07-23T11:42:12.207Z,28.40
2018-07-23T11:44:42.350Z,28.60
2018-07-23T11:47:12.767Z,28.80
2018-07-23T11:49:42.941Z,29.00
2018-07-23T11:52:14.355Z,29.00
2018-07-23T11:54:43.484Z,29.00
2018-07-23T11:57:13.866Z,29.10
2018-07-23T11:59:44.022Z,28.90
2018-07-23T12:02:14.242Z,28.90
2018-07-23T12:04:44.685Z,29.10
2018-07-23T12:07:14.741Z,29.20
2018-07-23T12:09:44.945Z,29.40
2018-07-23T12:12:15.084Z,29.40
2018-07-23T12:14:45.240Z,29.30
2018-07-23T12:17:15.740Z,29.30
2018-07-23T12:19:45.850Z,29.40
2018-07-23T12:22:16.402Z,29.40
2018-07-23T12:24:46.552Z,29.30
2018-07-23T12:27:16.634Z,29.20
2018-07-23T12:29:46.858Z,28.90
2018-07-23T12:32:16.979Z,28.60
2018-07-23T12:34:47.141Z,28.60
2018-07-23T12:37:17.253Z,28.60
2018-07-23T12:39:47.460Z,28.90
2018-07-23T12:42:17.565Z,29.10
2018-07-23T12:44:47.736Z,29.30
2018-07-23T12:47:18.063Z,29.50
2018-07-23T12:49:48.975Z,29.60
2018-07-23T12:52:19.571Z,29.80
2018-07-23T12:54:50.513Z,29.90
2018-07-23T12:57:20.632Z,30.00
2018-07-23T12:59:50.865Z,30.20
2018-07-23T13:02:21.184Z,30.30
2018-07-23T13:04:51.306Z,30.20
2018-07-23T13:07:21.522Z,30.00
2018-07-23T13:09:51.708Z,29.80
2018-07-23T13:12:21.834Z,29.70
2018-07-23T13:14:52.134Z,29.40
2018-07-23T13:17:22.418Z,29.20
2018-07-23T13:19:52.629Z,29.30
2018-07-23T13:22:22.793Z,29.40
2018-07-23T13:24:52.939Z,29.60
2018-07-23T13:27:23.271Z,29.70
2018-07-23T13:29:53.436Z,29.90
2018-07-23T13:32:23.608Z,29.90
2018-07-23T13:34:53.810Z,29.90
2018-07-23T13:37:24.194Z,29.90
2018-07-23T13:39:54.611Z,30.00
2018-07-23T13:42:24.853Z,29.90
2018-07-23T13:44:55.013Z,29.90
2018-07-23T13:47:25.411Z,29.90
2018-07-23T13:49:55.593Z,30.00
2018-07-23T13:54:55.737Z,29.90
2018-07-23T13:57:26.132Z,29.90
2018-07-23T13:59:56.558Z,29.90
2018-07-23T14:02:26.723Z,30.00
2018-07-23T14:04:56.839Z,30.10
2018-07-23T14:07:27.185Z,30.10
2018-07-23T14:09:57.350Z,30.40
2018-07-23T14:12:27.512Z,30.50
2018-07-23T14:14:57.635Z,30.50
2018-07-23T14:17:27.971Z,30.70
2018-07-23T14:19:58.169Z,30.90
2018-07-23T14:22:28.310Z,31.00
2018-07-23T14:24:58.558Z,30.90
2018-07-23T14:27:29.155Z,30.80
2018-07-23T14:29:59.413Z,30.90
2018-07-23T14:32:29.589Z,30.90
2018-07-23T14:34:59.796Z,31.10
2018-07-23T14:37:29.984Z,31.30
2018-07-23T14:40:00.256Z,31.50
2018-07-23T14:42:30.481Z,31.80
2018-07-23T14:45:00.741Z,32.00
2018-07-23T14:47:30.957Z,32.00
2018-07-23T14:50:02.369Z,32.20
2018-07-23T14:52:32.529Z,32.00
2018-07-23T14:55:02.934Z,31.90
2018-07-23T14:57:33.063Z,32.30
2018-07-23T15:00:03.290Z,32.50
2018-07-23T15:02:33.443Z,32.40
2018-07-23T15:05:03.761Z,31.70
2018-07-23T15:07:33.881Z,31.20
2018-07-23T15:10:04.533Z,31.00
2018-07-23T15:12:34.729Z,30.70
2018-07-23T15:15:04.955Z,31.20
2018-07-23T15:17:35.205Z,32.40
2018-07-23T15:20:05.593Z,33.30
2018-07-23T15:22:35.713Z,34.30
2018-07-23T15:25:06.035Z,34.80
2018-07-23T15:27:36.323Z,34.20
2018-07-23T15:30:07.219Z,33.60
2018-07-23T15:32:37.426Z,33.60
2018-07-23T15:35:07.648Z,33.80
2018-07-23T15:37:37.816Z,33.60
2018-07-23T15:40:08.002Z,33.90
2018-07-23T15:42:38.108Z,34.70
2018-07-23T15:45:08.318Z,35.40
2018-07-23T15:47:38.451Z,36.10
2018-07-23T15:50:11.333Z,36.40
2018-07-23T15:52:41.451Z,36.40
2018-07-23T15:55:11.641Z,36.10
2018-07-23T15:57:41.792Z,35.70
2018-07-23T16:00:12.026Z,35.10
2018-07-23T16:02:42.135Z,35.20
2018-07-23T16:05:12.296Z,34.60
2018-07-23T16:07:42.502Z,34.50
2018-07-23T16:10:12.813Z,34.00
2018-07-23T16:12:42.931Z,34.50
2018-07-23T16:15:13.357Z,35.00
2018-07-23T16:17:43.522Z,35.20
2018-07-23T16:20:13.711Z,36.10
2018-07-23T16:22:43.855Z,36.30
2018-07-23T16:25:14.036Z,35.90
2018-07-23T16:27:44.247Z,35.20
2018-07-23T16:30:14.520Z,34.10
2018-07-23T16:32:44.625Z,34.00
2018-07-23T16:35:14.872Z,34.10
2018-07-23T16:37:45.049Z,33.70
2018-07-23T16:40:15.250Z,33.30
2018-07-23T16:42:45.424Z,33.40
2018-07-23T16:45:15.601Z,33.30
2018-07-23T16:47:45.721Z,33.30
2018-07-23T16:50:15.886Z,33.20
2018-07-23T16:52:45.975Z,32.60
2018-07-23T16:55:16.177Z,32.30
2018-07-23T16:57:46.324Z,32.40
2018-07-23T17:00:16.456Z,32.20
2018-07-23T17:02:46.588Z,32.20
2018-07-23T17:05:16.767Z,31.90
2018-07-23T17:07:46.885Z,31.60
2018-07-23T17:10:17.632Z,31.30
2018-07-23T17:12:47.729Z,31.10
2018-07-23T17:15:18.151Z,30.80
2018-07-23T17:17:48.563Z,30.70
2018-07-23T17:20:18.801Z,30.40
2018-07-23T17:22:49.173Z,30.20
2018-07-23T17:25:19.487Z,30.10
2018-07-23T17:27:49.794Z,30.00
2018-07-23T17:30:19.979Z,29.80
2018-07-23T17:32:50.151Z,29.70
2018-07-23T17:35:20.381Z,29.60
2018-07-23T17:37:50.553Z,29.60
2018-07-23T17:40:20.788Z,29.40
2018-07-23T17:42:50.961Z,29.40
2018-07-23T17:45:21.330Z,29.40
2018-07-23T17:47:51.529Z,29.40
2018-07-23T17:50:22.031Z,29.50
2018-07-23T17:52:52.169Z,29.50
2018-07-23T17:55:22.400Z,29.60
2018-07-23T17:57:52.598Z,29.70
2018-07-23T18:00:22.812Z,29.60
2018-07-23T18:02:54.109Z,29.50
2018-07-23T18:05:24.306Z,29.60
2018-07-23T18:07:55.331Z,29.60
2018-07-23T18:10:26.305Z,29.60
2018-07-23T18:12:56.440Z,29.60
2018-07-23T18:15:26.702Z,29.60
2018-07-23T18:17:57.084Z,29.50
2018-07-23T18:20:27.601Z,29.50
2018-07-23T18:22:58.104Z,29.50
2018-07-23T18:25:28.224Z,29.50
2018-07-23T18:27:58.517Z,29.50
2018-07-23T18:30:28.805Z,29.40
2018-07-23T18:32:59.166Z,29.30
2018-07-23T18:35:29.336Z,29.20
2018-07-23T18:37:59.580Z,29.10
2018-07-23T18:40:29.750Z,29.00
2018-07-23T18:42:59.969Z,28.90
2018-07-23T18:45:30.704Z,28.70
2018-07-23T18:48:01.025Z,28.60
2018-07-23T18:50:31.233Z,28.60
2018-07-23T18:53:01.347Z,28.50
2018-07-23T18:55:31.501Z,28.40
2018-07-23T18:58:02.454Z,28.30
2018-07-23T19:00:33.098Z,28.20
2018-07-23T19:03:03.265Z,28.10
2018-07-23T19:05:34.496Z,28.00
2018-07-23T19:08:04.736Z,27.80
2018-07-23T19:10:35.010Z,27.70
2018-07-23T19:13:05.735Z,27.60
2018-07-23T19:15:36.195Z,27.50
2018-07-23T19:18:07.159Z,27.40
2018-07-23T19:20:37.493Z,27.30
2018-07-23T19:23:08.256Z,27.20
2018-07-23T19:25:38.966Z,27.10
2018-07-23T19:28:09.486Z,26.90
2018-07-23T19:30:39.841Z,26.80
2018-07-23T19:35:41.853Z,26.40
2018-07-23T19:38:12.210Z,26.20
2018-07-23T19:40:42.735Z,26.10
2018-07-23T19:43:13.841Z,26.10
2018-07-23T19:45:44.581Z,26.10
2018-07-23T19:48:14.787Z,26.00
2018-07-23T19:50:45.142Z,26.00
2018-07-23T19:53:16.011Z,25.80
2018-07-23T19:55:46.505Z,25.70
2018-07-23T19:58:17.191Z,25.60
2018-07-23T20:00:47.554Z,25.60
2018-07-23T20:03:18.097Z,25.50
2018-07-23T20:05:48.468Z,25.50
2018-07-23T20:08:19.094Z,25.40
2018-07-23T20:10:49.256Z,25.30
2018-07-23T20:13:19.461Z,25.10
2018-07-23T20:15:49.649Z,25.10
2018-07-23T20:18:20.209Z,25.10
2018-07-23T20:20:50.698Z,24.90
2018-07-23T20:23:22.043Z,24.90
2018-07-23T20:25:52.298Z,24.80
2018-07-23T20:28:22.556Z,24.60
2018-07-23T20:30:52.769Z,24.60
2018-07-23T20:33:22.986Z,24.50
2018-07-23T20:35:53.231Z,24.40
2018-07-23T20:38:26.009Z,24.30
2018-07-23T20:40:56.534Z,24.30
2018-07-23T20:43:32.585Z,24.20
2018-07-23T20:46:03.719Z,24.10
2018-07-23T20:48:34.077Z,24.00
2018-07-23T20:51:04.275Z,23.90
2018-07-23T20:53:34.468Z,23.70
2018-07-23T20:56:04.677Z,23.60
2018-07-23T20:58:34.923Z,23.50
2018-07-23T21:01:05.156Z,23.40
2018-07-23T21:03:35.383Z,23.30
2018-07-23T21:06:05.640Z,23.30
2018-07-23T21:08:35.775Z,23.20
2018-07-23T21:11:06.002Z,23.10
2018-07-23T21:13:36.094Z,23.00
2018-07-23T21:16:06.326Z,22.90
2018-07-23T21:18:36.445Z,22.80
2018-07-23T21:21:06.693Z,22.80
2018-07-23T21:23:36.809Z,22.70
2018-07-23T21:26:07.275Z,22.70
2018-07-23T21:28:37.541Z,22.70
2018-07-23T21:31:08.232Z,22.80
2018-07-23T21:33:38.405Z,22.80
2018-07-23T21:36:08.682Z,22.80
2018-07-23T21:38:38.879Z,22.80
2018-07-23T21:41:09.106Z,22.70
2018-07-23T21:43:39.242Z,22.60
2018-07-23T21:46:09.408Z,22.50
2018-07-23T21:48:39.666Z,22.50
2018-07-23T21:51:09.909Z,22.40
2018-07-23T21:53:40.171Z,22.40
2018-07-23T21:56:10.324Z,22.40
2018-07-23T21:58:40.421Z,22.30
2018-07-23T22:01:10.635Z,22.20
2018-07-23T22:03:41.015Z,22.10
2018-07-23T22:06:11.232Z,22.10
2018-07-23T22:08:41.299Z,22.10
2018-07-23T22:11:11.665Z,22.10
2018-07-23T22:16:12.414Z,22.00
2018-07-23T22:18:42.592Z,21.90
2018-07-23T22:21:12.869Z,21.90
2018-07-23T22:23:43.507Z,21.90
2018-07-23T22:26:13.641Z,21.90
2018-07-23T22:28:43.773Z,21.90
2018-07-23T22:31:13.921Z,21.90
2018-07-23T22:33:44.092Z,21.80
2018-07-23T22:38:44.019Z,21.70
2018-07-23T22:41:14.216Z,21.70
2018-07-23T22:43:44.387Z,21.60
2018-07-23T22:46:14.599Z,21.50
2018-07-23T22:48:44.782Z,21.50
2018-07-23T22:51:14.998Z,21.40
2018-07-23T22:53:45.259Z,21.40
2018-07-23T22:56:15.429Z,21.40
2018-07-23T22:58:45.517Z,21.30
2018-07-23T23:01:15.668Z,21.30
2018-07-23T23:03:46.086Z,21.30
2018-07-23T23:06:16.267Z,21.30
2018-07-23T23:08:46.312Z,21.20
2018-07-23T23:11:16.434Z,21.20
2018-07-23T23:13:46.707Z,21.10
2018-07-23T23:16:16.887Z,21.10
2018-07-23T23:18:48.335Z,21.10
2018-07-23T23:21:18.437Z,21.10
2018-07-23T23:23:48.527Z,21.10
2018-07-23T23:26:18.646Z,21.00
2018-07-23T23:28:48.849Z,21.00
2018-07-23T23:31:19.081Z,20.90
2018-07-23T23:33:49.247Z,20.80
2018-07-23T23:36:19.338Z,20.80
2018-07-23T23:38:49.556Z,20.70
2018-07-23T23:41:19.702Z,20.70
2018-07-23T23:43:49.792Z,20.60
2018-07-23T23:46:20.009Z,20.50
2018-07-23T23:48:50.172Z,20.40
2018-07-23T23:51:20.382Z,20.40
2018-07-23T23:53:50.495Z,20.40
2018-07-23T23:56:20.590Z,20.30
2018-07-23T23:58:50.872Z,20.40
